createdAt,value
2022-08-01T00:00:41.576Z,77.64
2022-08-01T00:01:43.330Z,77.85
2022-08-01T00:02:45.113Z,77.98
2022-08-01T00:03:46.845Z,78.23
2022-08-01T00:04:48.600Z,78.25
2022-08-01T00:05:50.282Z,78.43
2022-08-01T00:06:51.999Z,78.62
2022-08-01T00:07:53.785Z,78.71
2022-08-01T00:08:55.524Z,78.84
2022-08-01T00:09:57.262Z,79.24
2022-08-01T00:11:02.634Z,79.22
2022-08-01T00:12:00.681Z,79.37
2022-08-01T00:13:02.755Z,79.45
2022-08-01T00:14:04.193Z,79.81
2022-08-01T00:15:06.036Z,80.18
2022-08-01T00:16:07.663Z,80.31
2022-08-01T00:17:09.528Z,80.68
2022-08-01T00:18:11.207Z,81
2022-08-01T00:19:12.806Z,81.28
2022-08-01T00:20:14.662Z,81.68
2022-08-01T00:21:16.270Z,82.14
2022-08-01T00:22:18.017Z,82.47
2022-08-01T00:23:19.914Z,82.79
2022-08-01T00:24:21.464Z,82.91
2022-08-01T00:25:33.897Z,82.98
2022-08-01T00:26:25.009Z,83.09
2022-08-01T00:27:26.815Z,83.4
2022-08-01T00:28:28.422Z,83.39
2022-08-01T00:30:09.437Z,83.92
2022-08-01T00:30:31.887Z,83.92
2022-08-01T00:31:33.632Z,83.87
2022-08-01T00:32:35.492Z,84.03
2022-08-01T00:33:37.091Z,84.26
2022-08-01T00:34:38.952Z,84.43
2022-08-01T00:35:40.548Z,84.51
2022-08-01T00:36:42.412Z,84.58
2022-08-01T00:37:44.027Z,84.74
2022-08-01T00:38:45.972Z,84.7
2022-08-01T00:39:47.551Z,85.11
2022-08-01T00:40:49.233Z,85.09
2022-08-01T00:41:50.982Z,85.23
2022-08-01T00:42:52.759Z,85.33
2022-08-01T00:43:54.435Z,85.28
2022-08-01T00:44:56.228Z,85.33
2022-08-01T00:45:57.974Z,85.57
2022-08-01T00:46:59.917Z,85.44
2022-08-01T00:48:01.515Z,85.7
2022-08-01T00:49:03.103Z,85.72
2022-08-01T00:50:04.935Z,85.76
2022-08-01T00:51:06.527Z,86.05
2022-08-01T00:52:08.724Z,86.17
2022-08-01T00:53:09.993Z,86.25
2022-08-01T00:54:11.732Z,86.29
2022-08-01T00:55:15.128Z,86.34
2022-08-01T00:56:15.299Z,86.28
2022-08-01T00:57:39.985Z,86.35
2022-08-01T00:58:18.808Z,86.37
2022-08-01T00:59:20.563Z,86.08
2022-08-01T01:00:25.898Z,86.17
2022-08-01T01:01:23.899Z,86.25
2022-08-01T01:02:25.622Z,86.48
2022-08-01T01:03:56.327Z,86.4
2022-08-01T01:04:29.078Z,86.55
2022-08-01T01:05:34.587Z,86.64
2022-08-01T01:06:32.678Z,86.84
2022-08-01T01:07:34.349Z,86.88
2022-08-01T01:08:36.014Z,87.07
2022-08-01T01:09:37.751Z,87.16
2022-08-01T01:10:39.837Z,87.29
2022-08-01T01:11:41.223Z,87.39
2022-08-01T01:12:44.912Z,87.76
2022-08-01T01:13:50.095Z,88.16
2022-08-01T01:14:46.482Z,88.53
2022-08-01T01:15:48.149Z,88.86
2022-08-01T01:16:49.967Z,89.11
2022-08-01T01:17:52.032Z,89.32
2022-08-01T01:18:53.366Z,89.45
2022-08-01T01:19:55.296Z,89.58
2022-08-01T01:20:57.101Z,89.65
2022-08-01T01:21:58.655Z,89.63
2022-08-01T01:23:00.534Z,89.83
2022-08-01T01:24:02.045Z,89.95
2022-08-01T01:25:03.900Z,90.24
2022-08-01T01:26:06.522Z,90.41
2022-08-01T01:27:07.245Z,90.6
2022-08-01T01:28:08.973Z,90.84
2022-08-01T01:29:10.711Z,91.06
2022-08-01T01:30:12.586Z,91.31
2022-08-01T01:31:14.314Z,91.44
2022-08-01T01:32:15.902Z,91.67
2022-08-01T01:33:17.708Z,91.97
2022-08-01T01:34:19.446Z,92.19
2022-08-01T01:35:21.128Z,92.6
2022-08-01T01:36:22.993Z,92.92
2022-08-01T01:37:24.774Z,93.19
2022-08-01T01:38:26.309Z,93.62
2022-08-01T01:39:28.044Z,93.96
2022-08-01T01:40:29.891Z,94.61
2022-08-01T01:41:31.505Z,94.8
2022-08-01T01:42:33.389Z,95.16
2022-08-01T01:43:35.026Z,95.33
2022-08-01T01:44:36.713Z,95.56
2022-08-01T01:45:38.525Z,95.57
2022-08-01T01:46:40.193Z,95.85
2022-08-01T01:47:42.057Z,96.04
2022-08-01T01:48:43.664Z,96.07
2022-08-01T01:49:45.457Z,96.14
2022-08-01T01:50:47.122Z,96.37
2022-08-01T01:51:57.446Z,96.51
2022-08-01T01:52:50.591Z,96.6
2022-08-01T01:53:52.329Z,96.82
2022-08-01T01:54:54.335Z,96.82
2022-08-01T01:55:55.866Z,97.05
2022-08-01T01:56:57.537Z,97.13
2022-08-01T01:57:59.273Z,97.36
2022-08-01T01:59:01.167Z,97.45
2022-08-01T02:00:02.873Z,97.68
2022-08-01T02:01:05.500Z,98.12
2022-08-01T02:02:06.792Z,98.19
2022-08-01T02:03:08.195Z,98.18
2022-08-01T02:04:10.095Z,98.57
2022-08-01T02:05:11.831Z,98.64
2022-08-01T02:06:13.163Z,98.64
2022-08-01T02:07:15.178Z,98.7
2022-08-01T02:08:16.659Z,98.73
2022-08-01T02:09:18.370Z,98.66
2022-08-01T02:10:20.256Z,98.8
2022-08-01T02:11:21.844Z,98.83
2022-08-01T02:12:23.614Z,98.83
2022-08-01T02:13:25.279Z,98.76
2022-08-01T02:14:27.095Z,98.73
2022-08-01T02:15:28.759Z,98.74
2022-08-01T02:16:30.680Z,98.7
2022-08-01T02:17:32.226Z,98.73
2022-08-01T02:18:34.086Z,98.68
2022-08-01T02:19:38.687Z,98.6
2022-08-01T02:20:37.425Z,98.93
2022-08-01T02:21:39.153Z,98.97
2022-08-01T02:22:41.083Z,99.02
2022-08-01T02:23:42.628Z,99.19
2022-08-01T02:24:44.497Z,99.25
2022-08-01T02:26:09.999Z,99.19
2022-08-01T02:26:47.839Z,99.6
2022-08-01T02:27:49.633Z,99.78
2022-08-01T02:28:51.311Z,99.77
2022-08-01T02:29:53.034Z,99.85
2022-08-01T02:30:54.898Z,99.85
2022-08-01T02:31:56.520Z,99.77
2022-08-01T02:32:58.260Z,99.84
2022-08-01T02:34:00.535Z,99.89
2022-08-01T02:35:01.916Z,99.98
2022-08-01T02:36:31.569Z,100
2022-08-01T02:37:05.325Z,100
2022-08-01T02:38:06.955Z,100
2022-08-01T02:39:08.850Z,100
2022-08-01T02:40:13.064Z,100
2022-08-01T02:41:12.675Z,100
2022-08-01T02:42:13.985Z,100
2022-08-01T02:43:15.602Z,100
2022-08-01T02:44:17.327Z,100
2022-08-01T02:45:19.344Z,100
2022-08-01T02:46:20.971Z,100
2022-08-01T02:47:22.639Z,100
2022-08-01T02:48:24.557Z,100
2022-08-01T02:49:26.489Z,100
2022-08-01T02:50:27.747Z,100
2022-08-01T02:51:29.575Z,100
2022-08-01T02:52:31.505Z,100
2022-08-01T02:53:44.217Z,100
2022-08-01T02:54:34.959Z,100
2022-08-01T02:55:36.571Z,100
2022-08-01T02:56:38.157Z,100
2022-08-01T02:57:52.112Z,100
2022-08-01T02:58:41.692Z,100
2022-08-01T02:59:43.465Z,100
2022-08-01T03:00:45.069Z,100
2022-08-01T03:01:46.839Z,100
2022-08-01T03:02:48.556Z,100
2022-08-01T03:03:50.419Z,100
2022-08-01T03:04:56.789Z,100
2022-08-01T03:05:53.736Z,100
2022-08-01T03:06:55.771Z,100
2022-08-01T03:08:02.549Z,100
2022-08-01T03:08:58.948Z,100
2022-08-01T03:10:00.885Z,100
2022-08-01T03:11:05.439Z,100
2022-08-01T03:12:04.584Z,100
2022-08-01T03:13:05.962Z,100
2022-08-01T03:14:07.617Z,100
2022-08-01T03:15:09.359Z,100
2022-08-01T03:16:11.088Z,100
2022-08-01T03:17:12.817Z,100
2022-08-01T03:18:14.555Z,100
2022-08-01T03:19:16.301Z,100
2022-08-01T03:20:18.044Z,100
2022-08-01T03:21:19.753Z,100
2022-08-01T03:22:21.561Z,100
2022-08-01T03:23:23.292Z,100
2022-08-01T03:24:24.961Z,100
2022-08-01T03:25:26.768Z,100
2022-08-01T03:26:28.579Z,100
2022-08-01T03:27:30.532Z,100
2022-08-01T03:28:31.968Z,100
2022-08-01T03:29:33.777Z,100
2022-08-01T03:30:35.380Z,100
2022-08-01T03:31:37.191Z,100
2022-08-01T03:32:39.226Z,100
2022-08-01T03:33:40.971Z,100
2022-08-01T03:34:42.688Z,100
2022-08-01T03:35:44.353Z,100
2022-08-01T03:36:46.101Z,100
2022-08-01T03:38:13.442Z,100
2022-08-01T03:38:49.601Z,100
2022-08-01T03:39:51.252Z,100
2022-08-01T03:40:53.112Z,100
2022-08-01T03:41:56.844Z,100
2022-08-01T03:42:56.439Z,100
2022-08-01T03:43:58.602Z,100
2022-08-01T03:44:59.871Z,100
2022-08-01T03:46:01.652Z,100
2022-08-01T03:47:03.198Z,100
2022-08-01T03:48:05.070Z,100
2022-08-01T03:49:06.792Z,100
2022-08-01T03:50:12.365Z,100
2022-08-01T03:51:10.292Z,100
2022-08-01T03:52:11.970Z,100
2022-08-01T03:53:13.613Z,100
2022-08-01T03:54:15.340Z,100
2022-08-01T03:55:17.078Z,100
2022-08-01T03:56:18.749Z,100
2022-08-01T03:57:34.956Z,100
2022-08-01T03:58:22.385Z,100
2022-08-01T03:59:24.018Z,100
2022-08-01T04:00:25.697Z,100
2022-08-01T04:01:27.513Z,100
2022-08-01T04:02:29.195Z,100
2022-08-01T04:03:31.274Z,100
2022-08-01T04:04:32.702Z,100
2022-08-01T04:05:34.557Z,100
2022-08-01T04:06:36.220Z,100
2022-08-01T04:07:37.998Z,100
2022-08-01T04:08:39.615Z,100
2022-08-01T04:09:41.591Z,100
2022-08-01T04:10:43.039Z,100
2022-08-01T04:11:44.992Z,100
2022-08-01T04:12:46.650Z,100
2022-08-01T04:13:48.260Z,100
2022-08-01T04:14:50.191Z,100
2022-08-01T04:15:51.781Z,100
2022-08-01T04:16:53.601Z,100
2022-08-01T04:17:55.240Z,100
2022-08-01T04:18:57.062Z,100
2022-08-01T04:19:58.661Z,100
2022-08-01T04:21:00.393Z,100
2022-08-01T04:22:02.547Z,100
2022-08-01T04:23:04.043Z,100
2022-08-01T04:24:05.709Z,100
2022-08-01T04:25:07.325Z,100
2022-08-01T04:26:09.149Z,100
2022-08-01T04:27:10.805Z,100
2022-08-01T04:28:12.797Z,100
2022-08-01T04:29:14.277Z,100
2022-08-01T04:30:17.879Z,100
2022-08-01T04:31:17.815Z,100
2022-08-01T04:32:19.606Z,100
2022-08-01T04:33:21.217Z,100
2022-08-01T04:34:23.068Z,100
2022-08-01T04:36:02.045Z,100
2022-08-01T04:36:26.474Z,100
2022-08-01T04:37:28.145Z,100
2022-08-01T04:38:29.880Z,100
2022-08-01T04:39:31.796Z,100
2022-08-01T04:40:33.500Z,100
2022-08-01T04:41:35.384Z,100
2022-08-01T04:42:36.892Z,100
2022-08-01T04:43:38.579Z,100
2022-08-01T04:44:40.371Z,100
2022-08-01T04:45:42.027Z,100
2022-08-01T04:46:43.826Z,100
2022-08-01T04:47:45.795Z,100
2022-08-01T04:48:47.514Z,100
2022-08-01T04:49:49.546Z,100
2022-08-01T04:50:50.878Z,100
2022-08-01T04:51:52.513Z,100
2022-08-01T04:52:54.327Z,100
2022-08-01T04:53:55.908Z,100
2022-08-01T04:54:57.805Z,100
2022-08-01T04:55:59.482Z,100
2022-08-01T04:57:01.262Z,100
2022-08-01T04:58:03.032Z,100
2022-08-01T04:59:04.587Z,100
2022-08-01T05:00:06.599Z,100
2022-08-01T05:01:08.120Z,100
2022-08-01T05:02:10.197Z,100
2022-08-01T05:03:11.645Z,100
2022-08-01T05:04:13.296Z,100
2022-08-01T05:05:15.119Z,100
2022-08-01T05:06:16.786Z,100
2022-08-01T05:07:18.505Z,100
2022-08-01T05:08:20.188Z,100
2022-08-01T05:09:21.932Z,100
2022-08-01T05:10:23.694Z,100
2022-08-01T05:11:25.461Z,100
2022-08-01T05:12:27.211Z,100
2022-08-01T05:13:29.082Z,100
2022-08-01T05:14:31.172Z,100
2022-08-01T05:15:32.611Z,100
2022-08-01T05:16:34.351Z,100
2022-08-01T05:17:36.089Z,100
2022-08-01T05:18:37.899Z,100
2022-08-01T05:19:39.659Z,100
2022-08-01T05:20:41.469Z,100
2022-08-01T05:21:43.094Z,100
2022-08-01T05:22:44.845Z,100
2022-08-01T05:23:46.577Z,100
2022-08-01T05:24:48.239Z,100
2022-08-01T05:25:57.238Z,100
2022-08-01T05:26:51.780Z,100
2022-08-01T05:27:53.472Z,100
2022-08-01T05:28:55.096Z,100
2022-08-01T05:29:56.894Z,100
2022-08-01T05:30:58.717Z,100
2022-08-01T05:32:00.588Z,100
2022-08-01T05:33:02.404Z,100
2022-08-01T05:34:04.012Z,100
2022-08-01T05:35:05.612Z,100
2022-08-01T05:36:07.239Z,100
2022-08-01T05:37:09.094Z,100
2022-08-01T05:38:14.854Z,100
2022-08-01T05:39:12.815Z,100
2022-08-01T05:40:14.316Z,100
2022-08-01T05:41:15.940Z,100
2022-08-01T05:42:17.781Z,100
2022-08-01T05:43:19.607Z,100
2022-08-01T05:44:21.247Z,100
2022-08-01T05:45:22.651Z,100
2022-08-01T05:46:26.222Z,100
2022-08-01T05:47:26.121Z,100
2022-08-01T05:48:28.035Z,100
2022-08-01T05:49:29.827Z,100
2022-08-01T05:50:31.527Z,100
2022-08-01T05:51:33.201Z,100
2022-08-01T05:52:34.796Z,100
2022-08-01T05:53:36.608Z,100
2022-08-01T05:54:38.268Z,100
2022-08-01T05:55:40.077Z,100
2022-08-01T05:56:41.770Z,100
2022-08-01T05:57:43.491Z,100
2022-08-01T05:58:45.234Z,100
2022-08-01T05:59:47.088Z,100
2022-08-01T06:00:48.684Z,100
2022-08-01T06:01:50.469Z,100
2022-08-01T06:02:52.303Z,100
2022-08-01T06:03:53.889Z,100
2022-08-01T06:04:55.616Z,100
2022-08-01T06:05:57.489Z,100
2022-08-01T06:06:59.146Z,100
2022-08-01T06:08:00.821Z,100
2022-08-01T06:09:02.746Z,100
2022-08-01T06:10:04.423Z,100
2022-08-01T06:11:06.095Z,100
2022-08-01T06:12:08.305Z,100
2022-08-01T06:13:09.495Z,100
2022-08-01T06:14:11.548Z,100
2022-08-01T06:15:13.126Z,100
2022-08-01T06:16:14.840Z,100
2022-08-01T06:17:16.445Z,100
2022-08-01T06:18:18.336Z,100
2022-08-01T06:19:19.911Z,100
2022-08-01T06:20:21.647Z,100
2022-08-01T06:21:23.443Z,100
2022-08-01T06:22:25.117Z,100
2022-08-01T06:23:32.055Z,100
2022-08-01T06:24:28.779Z,100
2022-08-01T06:25:30.316Z,100
2022-08-01T06:26:32.054Z,100
2022-08-01T06:27:33.912Z,100
2022-08-01T06:28:35.517Z,100
2022-08-01T06:29:37.399Z,100
2022-08-01T06:30:38.984Z,100
2022-08-01T06:31:40.732Z,100
2022-08-01T06:32:42.625Z,100
2022-08-01T06:33:44.243Z,100
2022-08-01T06:34:46.059Z,100
2022-08-01T06:35:47.666Z,100
2022-08-01T06:36:49.399Z,100
2022-08-01T06:37:51.666Z,100
2022-08-01T06:38:52.984Z,100
2022-08-01T06:39:54.940Z,100
2022-08-01T06:40:56.676Z,100
2022-08-01T06:41:58.445Z,100
2022-08-01T06:43:00.331Z,100
2022-08-01T06:44:01.794Z,100
2022-08-01T06:45:03.633Z,100
2022-08-01T06:46:06.330Z,100
2022-08-01T06:47:07.141Z,100
2022-08-01T06:48:08.797Z,100
2022-08-01T06:49:10.662Z,100
2022-08-01T06:50:12.333Z,100
2022-08-01T06:51:14.109Z,100
2022-08-01T06:52:15.729Z,100
2022-08-01T06:53:17.550Z,100
2022-08-01T06:54:19.291Z,100
2022-08-01T06:55:20.869Z,100
2022-08-01T06:56:22.679Z,100
2022-08-01T06:57:24.582Z,100
2022-08-01T06:58:30.866Z,100
2022-08-01T06:59:27.942Z,100
2022-08-01T07:00:30.196Z,100
2022-08-01T07:01:34.271Z,100
2022-08-01T07:02:33.526Z,100
2022-08-01T07:03:53.511Z,100
2022-08-01T07:04:36.997Z,100
2022-08-01T07:05:38.299Z,100
2022-08-01T07:06:39.914Z,100
2022-08-01T07:07:42.006Z,100
2022-08-01T07:08:43.555Z,100
2022-08-01T07:09:45.204Z,100
2022-08-01T07:10:46.963Z,100
2022-08-01T07:11:48.651Z,100
2022-08-01T07:12:50.434Z,100
2022-08-01T07:13:52.112Z,100
2022-08-01T07:14:53.989Z,99.4
2022-08-01T07:15:55.649Z,99.36
2022-08-01T07:16:57.252Z,99.46
2022-08-01T07:17:59.240Z,98.55
2022-08-01T07:19:00.867Z,97.25
2022-08-01T07:20:02.577Z,95.67
2022-08-01T07:21:07.357Z,95.49
2022-08-01T07:22:06.328Z,93.23
2022-08-01T07:23:08.070Z,93.27
2022-08-01T07:24:12.904Z,93.38
2022-08-01T07:25:11.281Z,93.71
2022-08-01T07:26:13.005Z,94.31
2022-08-01T07:27:23.985Z,94.68
2022-08-01T07:28:16.511Z,93
2022-08-01T07:29:18.223Z,91.9
2022-08-01T07:30:20.409Z,92.08
2022-08-01T07:31:21.880Z,91.5
2022-08-01T07:32:23.422Z,92.43
2022-08-01T07:33:24.935Z,91.44
2022-08-01T07:34:26.892Z,91.17
2022-08-01T07:35:28.363Z,91.73
2022-08-01T07:36:30.405Z,91.51
2022-08-01T07:37:48.309Z,90.61
2022-08-01T07:38:33.790Z,91.3
2022-08-01T07:39:35.606Z,91.11
2022-08-01T07:40:37.265Z,91.19
2022-08-01T07:41:45.548Z,91.05
2022-08-01T07:42:40.814Z,91.35
2022-08-01T07:43:47.364Z,90.42
2022-08-01T07:44:44.131Z,90.78
2022-08-01T07:45:46.601Z,89.17
2022-08-01T07:46:47.581Z,90.62
2022-08-01T07:47:49.288Z,90.01
2022-08-01T07:48:51.168Z,90.03
2022-08-01T07:49:52.802Z,89.22
2022-08-01T07:50:54.494Z,90.88
2022-08-01T07:52:02.714Z,90.38
2022-08-01T07:52:57.784Z,88.64
2022-08-01T07:53:59.466Z,87.64
2022-08-01T07:55:01.462Z,88.39
2022-08-01T07:56:10.363Z,88.79
2022-08-01T07:57:04.942Z,88.55
2022-08-01T07:58:06.678Z,88.79
2022-08-01T07:59:08.341Z,87.89
2022-08-01T08:00:10.488Z,87.39
2022-08-01T08:01:11.513Z,87.91
2022-08-01T08:02:14.035Z,87.33
2022-08-01T08:03:15.785Z,87.98
2022-08-01T08:04:17.426Z,88.17
2022-08-01T08:05:51.331Z,87.51
2022-08-01T08:06:20.971Z,87.79
2022-08-01T08:07:22.295Z,88.46
2022-08-01T08:08:24.019Z,88.43
2022-08-01T08:09:25.650Z,87.77
2022-08-01T08:10:27.268Z,87.15
2022-08-01T08:11:29.932Z,87.58
2022-08-01T08:12:30.771Z,88.36
2022-08-01T08:13:32.627Z,87.55
2022-08-01T08:14:34.420Z,87.3
2022-08-01T08:15:36.117Z,87
2022-08-01T08:16:37.722Z,86.56
2022-08-01T08:17:39.374Z,87.05
2022-08-01T08:18:41.343Z,87.05
2022-08-01T08:19:42.933Z,86.63
2022-08-01T08:20:44.724Z,86.91
2022-08-01T08:21:46.535Z,86.82
2022-08-01T08:22:48.106Z,87.01
2022-08-01T08:23:49.921Z,87.35
2022-08-01T08:24:51.808Z,87.75
2022-08-01T08:25:53.417Z,88.32
2022-08-01T08:26:55.140Z,87.21
2022-08-01T08:27:56.940Z,86.9
2022-08-01T08:28:58.674Z,86.72
2022-08-01T08:30:00.524Z,86.59
2022-08-01T08:31:02.734Z,86.84
2022-08-01T08:32:04.048Z,86.79
2022-08-01T08:33:05.598Z,86.7
2022-08-01T08:34:07.243Z,86.61
2022-08-01T08:35:09.072Z,85.94
2022-08-01T08:36:10.751Z,86.32
2022-08-01T08:37:12.544Z,86.24
2022-08-01T08:38:14.272Z,86.53
2022-08-01T08:39:16.014Z,86.67
2022-08-01T08:40:17.612Z,86.19
2022-08-01T08:41:21.279Z,86.36
2022-08-01T08:42:21.224Z,86.94
2022-08-01T08:43:22.748Z,86.21
2022-08-01T08:44:24.683Z,86.73
2022-08-01T08:45:30.930Z,87.03
2022-08-01T08:46:28.475Z,85.67
2022-08-01T08:47:29.911Z,86.44
2022-08-01T08:48:31.600Z,86.95
2022-08-01T08:49:35.912Z,85.36
2022-08-01T08:50:34.952Z,85.14
2022-08-01T08:51:36.875Z,86.76
2022-08-01T08:52:38.527Z,86.34
2022-08-01T08:53:40.348Z,86.51
2022-08-01T08:54:42.350Z,86.73
2022-08-01T08:55:55.689Z,85.01
2022-08-01T08:56:45.496Z,85.13
2022-08-01T08:57:47.062Z,84.89
2022-08-01T08:58:48.966Z,84.42
2022-08-01T08:59:50.749Z,84.5
2022-08-01T09:00:52.992Z,84.4
2022-08-01T09:01:54.528Z,83.88
2022-08-01T09:02:56.442Z,82.96
2022-08-01T09:03:57.822Z,82.02
2022-08-01T09:04:59.625Z,81.38
2022-08-01T09:06:01.529Z,82.34
2022-08-01T09:07:03.424Z,81.11
2022-08-01T09:08:04.622Z,81.59
2022-08-01T09:09:06.302Z,80.48
2022-08-01T09:10:08.068Z,80.01
2022-08-01T09:11:09.657Z,78.47
2022-08-01T09:12:11.736Z,77.7
2022-08-01T09:13:14.641Z,78.11
2022-08-01T09:14:16.268Z,78.35
2022-08-01T09:15:16.745Z,78.63
2022-08-01T09:16:18.377Z,77.74
2022-08-01T09:17:20.289Z,76.55
2022-08-01T09:18:22.114Z,77.57
2022-08-01T09:19:40.625Z,73.82
2022-08-01T09:20:25.223Z,74.57
2022-08-01T09:21:27.174Z,75.19
2022-08-01T09:22:28.681Z,74.65
2022-08-01T09:23:30.371Z,74.44
2022-08-01T09:24:32.604Z,72.93
2022-08-01T09:25:46.037Z,71.96
2022-08-01T09:26:35.705Z,71.91
2022-08-01T09:27:37.573Z,70.88
2022-08-01T09:28:39.326Z,72.71
2022-08-01T09:29:41.216Z,73.77
2022-08-01T09:30:43.545Z,72.61
2022-08-01T09:31:47.386Z,72.95
2022-08-01T09:32:46.184Z,73.67
2022-08-01T09:33:47.941Z,72.45
2022-08-01T09:34:49.593Z,72.13
2022-08-01T09:35:51.344Z,72.22
2022-08-01T09:36:54.274Z,72.89
2022-08-01T09:37:54.785Z,73.84
2022-08-01T09:38:56.492Z,72.31
2022-08-01T09:39:58.344Z,73.47
2022-08-01T09:41:00.202Z,72.29
2022-08-01T09:42:01.809Z,72.37
2022-08-01T09:43:03.447Z,70.6
2022-08-01T09:44:05.264Z,69.9
2022-08-01T09:45:07.374Z,71.26
2022-08-01T09:46:08.727Z,70.18
2022-08-01T09:47:10.528Z,70.19
2022-08-01T09:48:12.394Z,70.35
2022-08-01T09:49:14.057Z,70.68
2022-08-01T09:50:15.647Z,68.63
2022-08-01T09:51:58.449Z,69.06
2022-08-01T09:52:19.227Z,67.89
2022-08-01T09:53:29.426Z,69.23
2022-08-01T09:54:22.924Z,69.1
2022-08-01T09:55:24.341Z,69.36
2022-08-01T09:56:26.155Z,69.01
2022-08-01T09:57:27.861Z,69.6
2022-08-01T09:58:29.614Z,67.43
2022-08-01T09:59:40.892Z,67.06
2022-08-01T10:00:44.229Z,67.3
2022-08-01T10:01:36.798Z,66.67
2022-08-01T10:02:37.048Z,66.95
2022-08-01T10:03:38.501Z,66.44
2022-08-01T10:04:40.277Z,65.8
2022-08-01T10:05:41.973Z,66.18
2022-08-01T10:06:44.039Z,66.97
2022-08-01T10:07:45.055Z,66.99
2022-08-01T10:08:46.905Z,65.3
2022-08-01T10:09:48.577Z,66.14
2022-08-01T10:10:50.315Z,63.81
2022-08-01T10:11:51.940Z,61.85
2022-08-01T10:12:53.872Z,61.54
2022-08-01T10:13:55.581Z,63.16
2022-08-01T10:14:57.327Z,62.26
2022-08-01T10:15:59.054Z,62.84
2022-08-01T10:17:05.450Z,63.55
2022-08-01T10:18:03.128Z,62.68
2022-08-01T10:19:04.276Z,64.07
2022-08-01T10:20:05.928Z,64.26
2022-08-01T10:21:08.752Z,64.79
2022-08-01T10:22:09.373Z,64.28
2022-08-01T10:23:11.174Z,63.03
2022-08-01T10:24:13.097Z,62.75
2022-08-01T10:25:14.569Z,62.23
2022-08-01T10:26:16.296Z,62.25
2022-08-01T10:27:21.635Z,61.3
2022-08-01T10:28:23.740Z,61.94
2022-08-01T10:29:45.353Z,61.21
2022-08-01T10:30:24.414Z,60.82
2022-08-01T10:31:30.833Z,60.92
2022-08-01T10:32:29.005Z,61.52
2022-08-01T10:33:50.978Z,61.82
2022-08-01T10:34:30.251Z,62.3
2022-08-01T10:35:47.628Z,62.17
2022-08-01T10:36:33.697Z,61.24
2022-08-01T10:37:35.476Z,61.32
2022-08-01T10:38:37.547Z,61.56
2022-08-01T10:39:38.830Z,62.7
2022-08-01T10:40:40.601Z,61.76
2022-08-01T10:41:42.395Z,61.88
2022-08-01T10:42:44.177Z,62.21
2022-08-01T10:43:46.931Z,62.09
2022-08-01T10:44:48.927Z,62.14
2022-08-01T10:45:49.149Z,61.31
2022-08-01T10:46:51.001Z,62.08
2022-08-01T10:47:53.017Z,63.38
2022-08-01T10:48:54.716Z,62.66
2022-08-01T10:49:56.401Z,61.92
2022-08-01T10:50:58.079Z,62.55
2022-08-01T10:51:59.817Z,61.8
2022-08-01T10:53:05.587Z,62.7
2022-08-01T10:54:03.440Z,63.76
2022-08-01T10:55:05.050Z,63.93
2022-08-01T10:56:07.773Z,64.58
2022-08-01T10:57:09.084Z,63.61
2022-08-01T10:58:10.080Z,62.16
2022-08-01T10:59:12.136Z,62.57
2022-08-01T11:00:13.967Z,63.04
2022-08-01T11:01:15.591Z,61.23
2022-08-01T11:02:17.328Z,61.43
2022-08-01T11:03:30.979Z,62.16
2022-08-01T11:04:20.972Z,62.43
2022-08-01T11:05:24.108Z,62.87
2022-08-01T11:06:24.614Z,62.23
2022-08-01T11:07:26.082Z,63.51
2022-08-01T11:08:27.773Z,62.37
2022-08-01T11:09:36.942Z,62.96
2022-08-01T11:10:30.879Z,63.09
2022-08-01T11:11:37.606Z,61.37
2022-08-01T11:12:34.435Z,61.91
2022-08-01T11:13:36.117Z,62.97
2022-08-01T11:14:55.285Z,60.73
2022-08-01T11:15:50.131Z,61.06
2022-08-01T11:16:41.402Z,58.43
2022-08-01T11:17:43.355Z,58.17
2022-08-01T11:18:44.874Z,56.67
2022-08-01T11:19:46.682Z,58.25
2022-08-01T11:20:48.200Z,57.5
2022-08-01T11:21:58.867Z,58.52
2022-08-01T11:22:51.830Z,57.46
2022-08-01T11:23:53.587Z,57.5
2022-08-01T11:24:55.309Z,58.24
2022-08-01T11:26:05.501Z,56.73
2022-08-01T11:26:58.646Z,57.63
2022-08-01T11:28:00.761Z,58.26
2022-08-01T11:29:19.606Z,58.46
2022-08-01T11:30:04.575Z,57.17
2022-08-01T11:31:11.040Z,57.78
2022-08-01T11:32:07.751Z,57
2022-08-01T11:33:11.232Z,54.65
2022-08-01T11:34:10.887Z,55.31
2022-08-01T11:35:12.537Z,55.74
2022-08-01T11:36:15.262Z,55.97
2022-08-01T11:37:16.090Z,55.17
2022-08-01T11:38:17.839Z,55.47
2022-08-01T11:39:19.483Z,54.96
2022-08-01T11:40:22.967Z,55.09
2022-08-01T11:41:37.612Z,53.67
2022-08-01T11:42:24.762Z,53.76
2022-08-01T11:43:26.496Z,54.44
2022-08-01T11:44:30.129Z,54.28
2022-08-01T11:45:29.845Z,53.6
2022-08-01T11:46:31.710Z,54.09
2022-08-01T11:47:36.554Z,54.55
2022-08-01T11:48:35.251Z,54.93
2022-08-01T11:49:37.012Z,54.77
2022-08-01T11:50:39.075Z,54.83
2022-08-01T11:51:40.483Z,56.37
2022-08-01T11:52:42.004Z,55.35
2022-08-01T11:53:43.914Z,55.39
2022-08-01T11:54:45.620Z,53.96
2022-08-01T11:55:47.703Z,55.55
2022-08-01T11:56:49.078Z,55.7
2022-08-01T11:57:50.829Z,56.42
2022-08-01T11:58:52.582Z,54.28
2022-08-01T12:00:03.257Z,53.26
2022-08-01T12:00:56.313Z,54.09
2022-08-01T12:01:58.064Z,53.65
2022-08-01T12:03:00.097Z,52.93
2022-08-01T12:04:01.399Z,53.71
2022-08-01T12:05:03.672Z,54.5
2022-08-01T12:06:11.966Z,54.25
2022-08-01T12:07:07.165Z,53.03
2022-08-01T12:08:08.487Z,52.73
2022-08-01T12:09:12.138Z,52.53
2022-08-01T12:10:11.578Z,52.74
2022-08-01T12:11:13.455Z,52.89
2022-08-01T12:12:15.103Z,52.27
2022-08-01T12:13:16.869Z,51.72
2022-08-01T12:14:18.461Z,51.54
2022-08-01T12:15:20.347Z,50.7
2022-08-01T12:16:23.990Z,51.57
2022-08-01T12:17:23.742Z,50.38
2022-08-01T12:18:25.473Z,51.63
2022-08-01T12:19:27.079Z,52.22
2022-08-01T12:20:30.723Z,53.02
2022-08-01T12:21:30.658Z,53.39
2022-08-01T12:22:32.446Z,53.29
2022-08-01T12:23:34.157Z,53.3
2022-08-01T12:24:35.735Z,53.55
2022-08-01T12:25:37.694Z,54.39
2022-08-01T12:26:39.522Z,53.83
2022-08-01T12:27:40.993Z,53.77
2022-08-01T12:28:43.009Z,53.47
2022-08-01T12:29:44.535Z,52.83
2022-08-01T12:30:46.665Z,53.1
2022-08-01T12:31:48.408Z,52.55
2022-08-01T12:32:50.113Z,53.6
2022-08-01T12:33:51.583Z,53.29
2022-08-01T12:34:53.433Z,52.89
2022-08-01T12:35:54.999Z,52.76
2022-08-01T12:36:56.559Z,52.48
2022-08-01T12:37:58.249Z,52.12
2022-08-01T12:38:59.947Z,52.14
2022-08-01T12:40:02.008Z,52.68
2022-08-01T12:41:03.576Z,53.22
2022-08-01T12:42:05.376Z,53.21
2022-08-01T12:43:08.833Z,52.85
2022-08-01T12:44:08.771Z,52.47
2022-08-01T12:45:10.569Z,52.49
2022-08-01T12:46:12.237Z,52.46
2022-08-01T12:47:13.979Z,52.79
2022-08-01T12:48:15.766Z,51.63
2022-08-01T12:49:17.575Z,52.15
2022-08-01T12:50:19.229Z,52.8
2022-08-01T12:51:20.931Z,51.12
2022-08-01T12:52:22.672Z,51.73
2022-08-01T12:53:24.538Z,51.33
2022-08-01T12:54:26.350Z,51.83
2022-08-01T12:55:34.349Z,51.88
2022-08-01T12:56:29.716Z,51.96
2022-08-01T12:57:31.428Z,51.49
2022-08-01T12:58:33.407Z,50.79
2022-08-01T12:59:34.635Z,51.22
2022-08-01T13:00:37.117Z,51.45
2022-08-01T13:01:38.893Z,49.97
2022-08-01T13:02:40.028Z,50.23
2022-08-01T13:03:42.072Z,50.23
2022-08-01T13:04:46.930Z,50.36
2022-08-01T13:05:45.096Z,50.92
2022-08-01T13:06:46.807Z,51.33
2022-08-01T13:07:49.180Z,52.14
2022-08-01T13:08:50.524Z,52.42
2022-08-01T13:09:52.064Z,52.26
2022-08-01T13:10:53.871Z,51.92
2022-08-01T13:12:04.186Z,51.91
2022-08-01T13:12:57.283Z,51.72
2022-08-01T13:13:58.892Z,51.56
2022-08-01T13:15:00.801Z,51.24
2022-08-01T13:16:02.693Z,50.49
2022-08-01T13:17:04.352Z,50.8
2022-08-01T13:18:05.910Z,50.97
2022-08-01T13:19:07.812Z,51.84
2022-08-01T13:20:09.482Z,52.29
2022-08-01T13:21:11.286Z,52.13
2022-08-01T13:22:12.875Z,51.94
2022-08-01T13:23:14.952Z,51.92
2022-08-01T13:24:16.481Z,52.72
2022-08-01T13:25:22.309Z,52.18
2022-08-01T13:26:19.889Z,52.55
2022-08-01T13:27:21.678Z,52.36
2022-08-01T13:28:23.615Z,52.44
2022-08-01T13:29:25.148Z,52.71
2022-08-01T13:30:27.209Z,52.56
2022-08-01T13:31:29.103Z,52.27
2022-08-01T13:32:32.448Z,51.91
2022-08-01T13:33:32.039Z,52.65
2022-08-01T13:34:33.841Z,53.45
2022-08-01T13:35:35.571Z,53.6